Главная страница
METAR-TAF:

METAR-TAF

Аэропорты :

Dansville Municipal Airport

Dansville, Нью-Йорк, США

широта: 42-34-10N, долгота: 077-42-52W, высота над уровнем моря: 201 м

Текущие метеонаблюдения

Эта сводка был подготовлена 37 минут назад, в 13:54 UTC
Ветер 4 Узел от юго-восточный
Температура 25°C
Влажность 69%
Давление 1019 hPa
Видимость: 16.1 км
ясное небо

METAR: KDSV 161354Z AUTO 13004KT 10SM CLR 25/19 A3009 RMK AO2 SLP195 T02500194

Время: 10:31 (14:31 UTC)


TAF: отсутствует

Метеонаблюдения и прогнозы для более 4000 аэропортов (сводки METAR и TAF).

Имеющиеся станции представлены на карте желтыми и красными точками.

Чтобы увидеть название станции, наведите на нее мышь.

Затем щелкните, чтобы увидеть метеонаблюдения и метеопрогнозы.

Управление картой: чтобы увеличить масштаб, щелкните зеленые кнопки с черным крестиком; чтобы уменьшить масштаб, щелкните зеленую кнопку с тире; для просмотра соседних карт щелкайте зеленые стрелки.


METAR-TAF: